sensor_id;sensor_type;location;lat;lon;timestamp;P1;durP1;ratioP1;P2;durP2;ratioP2
55465;SDS011;41329;41.594;23.810;2023-06-14T00:01:31;2.50;;;2.40;;
55465;SDS011;41329;41.594;23.810;2023-06-14T00:03:59;4.65;;;3.30;;
55465;SDS011;41329;41.594;23.810;2023-06-14T00:06:26;3.47;;;3.17;;
55465;SDS011;41329;41.594;23.810;2023-06-14T00:08:52;4.28;;;4.07;;
55465;SDS011;41329;41.594;23.810;2023-06-14T00:11:17;3.63;;;3.42;;
55465;SDS011;41329;41.594;23.810;2023-06-14T00:13:42;3.17;;;3.05;;
55465;SDS011;41329;41.594;23.810;2023-06-14T00:16:08;3.53;;;3.28;;
55465;SDS011;41329;41.594;23.810;2023-06-14T00:18:33;2.72;;;2.60;;
55465;SDS011;41329;41.594;23.810;2023-06-14T00:20:59;3.40;;;3.20;;
55465;SDS011;41329;41.594;23.810;2023-06-14T00:23:25;2.75;;;2.65;;
55465;SDS011;41329;41.594;23.810;2023-06-14T00:25:50;3.47;;;3.28;;
55465;SDS011;41329;41.594;23.810;2023-06-14T00:28:16;3.70;;;3.50;;
55465;SDS011;41329;41.594;23.810;2023-06-14T00:30:41;3.67;;;3.47;;
55465;SDS011;41329;41.594;23.810;2023-06-14T00:33:09;3.70;;;3.45;;
55465;SDS011;41329;41.594;23.810;2023-06-14T00:35:34;3.92;;;3.72;;
55465;SDS011;41329;41.594;23.810;2023-06-14T00:38:00;3.78;;;3.58;;
55465;SDS011;41329;41.594;23.810;2023-06-14T00:40:26;6.10;;;3.50;;
55465;SDS011;41329;41.594;23.810;2023-06-14T00:42:52;3.80;;;3.60;;
55465;SDS011;41329;41.594;23.810;2023-06-14T00:45:17;4.78;;;4.38;;
55465;SDS011;41329;41.594;23.810;2023-06-14T00:47:42;3.92;;;3.50;;
55465;SDS011;41329;41.594;23.810;2023-06-14T00:50:08;3.63;;;3.42;;
55465;SDS011;41329;41.594;23.810;2023-06-14T00:52:34;3.90;;;3.63;;
55465;SDS011;41329;41.594;23.810;2023-06-14T00:55:01;4.85;;;4.32;;
55465;SDS011;41329;41.594;23.810;2023-06-14T00:57:27;3.72;;;3.50;;
55465;SDS011;41329;41.594;23.810;2023-06-14T00:59:52;4.78;;;4.38;;
55465;SDS011;41329;41.594;23.810;2023-06-14T01:02:19;4.20;;;3.90;;
55465;SDS011;41329;41.594;23.810;2023-06-14T01:04:45;4.25;;;3.85;;
55465;SDS011;41329;41.594;23.810;2023-06-14T01:07:21;3.85;;;3.60;;
55465;SDS011;41329;41.594;23.810;2023-06-14T01:10:07;4.75;;;4.43;;
55465;SDS011;41329;41.594;23.810;2023-06-14T01:15:27;4.47;;;4.18;;
55465;SDS011;41329;41.594;23.810;2023-06-14T01:17:55;4.47;;;4.18;;
55465;SDS011;41329;41.594;23.810;2023-06-14T01:20:22;3.85;;;3.63;;
55465;SDS011;41329;41.594;23.810;2023-06-14T01:22:54;3.67;;;3.47;;
55465;SDS011;41329;41.594;23.810;2023-06-14T01:25:20;3.80;;;3.53;;
55465;SDS011;41329;41.594;23.810;2023-06-14T01:27:48;5.25;;;3.15;;
55465;SDS011;41329;41.594;23.810;2023-06-14T01:30:18;3.80;;;3.47;;
55465;SDS011;41329;41.594;23.810;2023-06-14T01:32:46;3.95;;;3.65;;
55465;SDS011;41329;41.594;23.810;2023-06-14T01:35:13;4.15;;;3.90;;
55465;SDS011;41329;41.594;23.810;2023-06-14T01:37:39;4.40;;;4.10;;
55465;SDS011;41329;41.594;23.810;2023-06-14T01:40:05;4.13;;;3.80;;
55465;SDS011;41329;41.594;23.810;2023-06-14T01:42:34;3.80;;;3.60;;
55465;SDS011;41329;41.594;23.810;2023-06-14T01:45:02;4.55;;;4.25;;
55465;SDS011;41329;41.594;23.810;2023-06-14T01:47:28;4.28;;;3.63;;
55465;SDS011;41329;41.594;23.810;2023-06-14T01:49:55;5.15;;;4.85;;
55465;SDS011;41329;41.594;23.810;2023-06-14T01:52:20;6.45;;;6.07;;
55465;SDS011;41329;41.594;23.810;2023-06-14T01:54:47;6.70;;;6.30;;
55465;SDS011;41329;41.594;23.810;2023-06-14T01:57:12;9.95;;;3.97;;
55465;SDS011;41329;41.594;23.810;2023-06-14T01:59:38;4.13;;;3.67;;
55465;SDS011;41329;41.594;23.810;2023-06-14T02:02:03;4.50;;;4.10;;
55465;SDS011;41329;41.594;23.810;2023-06-14T02:04:29;4.00;;;3.58;;
55465;SDS011;41329;41.594;23.810;2023-06-14T02:06:54;4.20;;;3.90;;
55465;SDS011;41329;41.594;23.810;2023-06-14T02:09:19;3.72;;;3.42;;
55465;SDS011;41329;41.594;23.810;2023-06-14T02:11:45;4.25;;;3.92;;
55465;SDS011;41329;41.594;23.810;2023-06-14T02:14:10;9.05;;;3.97;;
55465;SDS011;41329;41.594;23.810;2023-06-14T02:16:36;6.40;;;4.60;;
55465;SDS011;41329;41.594;23.810;2023-06-14T02:19:03;4.95;;;4.57;;
55465;SDS011;41329;41.594;23.810;2023-06-14T02:21:32;5.40;;;5.00;;
55465;SDS011;41329;41.594;23.810;2023-06-14T02:23:57;4.93;;;3.70;;
55465;SDS011;41329;41.594;23.810;2023-06-14T02:26:23;4.90;;;4.22;;
55465;SDS011;41329;41.594;23.810;2023-06-14T02:28:49;4.50;;;4.20;;
55465;SDS011;41329;41.594;23.810;2023-06-14T02:31:14;4.03;;;3.83;;
55465;SDS011;41329;41.594;23.810;2023-06-14T02:33:41;4.97;;;4.57;;
55465;SDS011;41329;41.594;23.810;2023-06-14T02:36:06;4.47;;;4.05;;
55465;SDS011;41329;41.594;23.810;2023-06-14T02:38:32;4.93;;;4.57;;
55465;SDS011;41329;41.594;23.810;2023-06-14T02:40:57;4.10;;;3.75;;
55465;SDS011;41329;41.594;23.810;2023-06-14T02:43:24;4.50;;;4.20;;
55465;SDS011;41329;41.594;23.810;2023-06-14T02:45:49;3.88;;;3.67;;
55465;SDS011;41329;41.594;23.810;2023-06-14T02:48:15;3.90;;;3.60;;
55465;SDS011;41329;41.594;23.810;2023-06-14T02:50:41;4.30;;;3.88;;
55465;SDS011;41329;41.594;23.810;2023-06-14T02:53:06;4.18;;;3.92;;
55465;SDS011;41329;41.594;23.810;2023-06-14T02:55:32;4.15;;;3.83;;
55465;SDS011;41329;41.594;23.810;2023-06-14T02:57:57;4.32;;;4.00;;
55465;SDS011;41329;41.594;23.810;2023-06-14T03:00:23;4.30;;;4.05;;
55465;SDS011;41329;41.594;23.810;2023-06-14T03:02:48;4.80;;;4.38;;
55465;SDS011;41329;41.594;23.810;2023-06-14T03:05:13;5.55;;;5.07;;
55465;SDS011;41329;41.594;23.810;2023-06-14T03:07:39;5.03;;;4.72;;
55465;SDS011;41329;41.594;23.810;2023-06-14T03:10:10;5.90;;;5.60;;
55465;SDS011;41329;41.594;23.810;2023-06-14T03:12:37;4.13;;;3.83;;
55465;SDS011;41329;41.594;23.810;2023-06-14T03:15:03;6.05;;;5.15;;
55465;SDS011;41329;41.594;23.810;2023-06-14T03:17:29;5.55;;;5.20;;
55465;SDS011;41329;41.594;23.810;2023-06-14T03:19:58;6.00;;;5.60;;
55465;SDS011;41329;41.594;23.810;2023-06-14T03:22:24;5.47;;;5.07;;
55465;SDS011;41329;41.594;23.810;2023-06-14T03:24:50;4.20;;;3.90;;
55465;SDS011;41329;41.594;23.810;2023-06-14T03:27:17;4.65;;;4.35;;
55465;SDS011;41329;41.594;23.810;2023-06-14T03:29:43;5.85;;;4.25;;
55465;SDS011;41329;41.594;23.810;2023-06-14T03:32:09;5.07;;;4.78;;
55465;SDS011;41329;41.594;23.810;2023-06-14T03:34:34;4.53;;;4.22;;
55465;SDS011;41329;41.594;23.810;2023-06-14T03:37:00;4.50;;;4.20;;
55465;SDS011;41329;41.594;23.810;2023-06-14T03:39:25;7.40;;;4.88;;
55465;SDS011;41329;41.594;23.810;2023-06-14T03:41:51;5.07;;;4.78;;
55465;SDS011;41329;41.594;23.810;2023-06-14T03:44:17;5.88;;;5.38;;
55465;SDS011;41329;41.594;23.810;2023-06-14T03:46:43;7.15;;;6.63;;
55465;SDS011;41329;41.594;23.810;2023-06-14T03:49:10;6.90;;;6.50;;
55465;SDS011;41329;41.594;23.810;2023-06-14T03:51:36;5.35;;;5.10;;
55465;SDS011;41329;41.594;23.810;2023-06-14T03:54:01;5.93;;;5.60;;
55465;SDS011;41329;41.594;23.810;2023-06-14T03:56:27;5.05;;;4.57;;
55465;SDS011;41329;41.594;23.810;2023-06-14T03:58:52;7.15;;;6.63;;
55465;SDS011;41329;41.594;23.810;2023-06-14T04:01:18;6.70;;;6.20;;
55465;SDS011;41329;41.594;23.810;2023-06-14T04:03:43;8.27;;;6.50;;
55465;SDS011;41329;41.594;23.810;2023-06-14T04:06:09;6.90;;;6.50;;
55465;SDS011;41329;41.594;23.810;2023-06-14T04:08:34;5.60;;;5.13;;
55465;SDS011;41329;41.594;23.810;2023-06-14T04:11:00;5.15;;;4.75;;
55465;SDS011;41329;41.594;23.810;2023-06-14T04:13:26;5.57;;;5.28;;
55465;SDS011;41329;41.594;23.810;2023-06-14T04:15:51;4.90;;;4.60;;
55465;SDS011;41329;41.594;23.810;2023-06-14T04:18:16;4.65;;;4.45;;
55465;SDS011;41329;41.594;23.810;2023-06-14T04:20:43;4.75;;;4.45;;
55465;SDS011;41329;41.594;23.810;2023-06-14T04:23:15;4.47;;;4.20;;
55465;SDS011;41329;41.594;23.810;2023-06-14T04:25:46;4.53;;;4.13;;
55465;SDS011;41329;41.594;23.810;2023-06-14T04:28:15;4.07;;;3.88;;
55465;SDS011;41329;41.594;23.810;2023-06-14T04:30:42;3.92;;;3.72;;
55465;SDS011;41329;41.594;23.810;2023-06-14T04:33:08;4.18;;;3.90;;
55465;SDS011;41329;41.594;23.810;2023-06-14T04:35:34;3.83;;;3.63;;
55465;SDS011;41329;41.594;23.810;2023-06-14T04:38:01;4.45;;;4.10;;
55465;SDS011;41329;41.594;23.810;2023-06-14T04:40:29;4.35;;;4.07;;
55465;SDS011;41329;41.594;23.810;2023-06-14T04:42:55;4.40;;;4.20;;
55465;SDS011;41329;41.594;23.810;2023-06-14T04:45:20;4.05;;;3.85;;
55465;SDS011;41329;41.594;23.810;2023-06-14T04:47:47;4.50;;;4.20;;
55465;SDS011;41329;41.594;23.810;2023-06-14T04:50:12;4.15;;;3.92;;
55465;SDS011;41329;41.594;23.810;2023-06-14T04:52:38;5.63;;;5.10;;
55465;SDS011;41329;41.594;23.810;2023-06-14T04:55:03;4.65;;;4.38;;
55465;SDS011;41329;41.594;23.810;2023-06-14T04:57:29;5.10;;;4.63;;
55465;SDS011;41329;41.594;23.810;2023-06-14T04:59:54;5.45;;;5.15;;
55465;SDS011;41329;41.594;23.810;2023-06-14T05:02:23;7.65;;;7.15;;
55465;SDS011;41329;41.594;23.810;2023-06-14T05:04:49;7.40;;;6.80;;
55465;SDS011;41329;41.594;23.810;2023-06-14T05:07:15;7.63;;;7.13;;
55465;SDS011;41329;41.594;23.810;2023-06-14T05:09:40;6.80;;;6.35;;
55465;SDS011;41329;41.594;23.810;2023-06-14T05:12:06;9.77;;;7.90;;
55465;SDS011;41329;41.594;23.810;2023-06-14T05:14:35;8.82;;;8.15;;
55465;SDS011;41329;41.594;23.810;2023-06-14T05:17:01;9.15;;;8.43;;
55465;SDS011;41329;41.594;23.810;2023-06-14T05:19:27;8.88;;;8.25;;
55465;SDS011;41329;41.594;23.810;2023-06-14T05:21:53;11.45;;;8.05;;
55465;SDS011;41329;41.594;23.810;2023-06-14T05:24:19;12.88;;;11.98;;
55465;SDS011;41329;41.594;23.810;2023-06-14T05:26:45;12.77;;;11.70;;
55465;SDS011;41329;41.594;23.810;2023-06-14T05:29:10;11.98;;;11.13;;
55465;SDS011;41329;41.594;23.810;2023-06-14T05:31:36;17.75;;;9.90;;
55465;SDS011;41329;41.594;23.810;2023-06-14T05:34:01;9.45;;;8.75;;
55465;SDS011;41329;41.594;23.810;2023-06-14T05:36:27;9.73;;;9.13;;
55465;SDS011;41329;41.594;23.810;2023-06-14T05:38:53;9.27;;;8.50;;
55465;SDS011;41329;41.594;23.810;2023-06-14T05:41:24;9.15;;;8.60;;
55465;SDS011;41329;41.594;23.810;2023-06-14T05:43:51;9.95;;;9.23;;
55465;SDS011;41329;41.594;23.810;2023-06-14T05:46:16;9.25;;;8.65;;
55465;SDS011;41329;41.594;23.810;2023-06-14T05:48:46;9.23;;;8.73;;
55465;SDS011;41329;41.594;23.810;2023-06-14T05:51:12;9.05;;;8.15;;
55465;SDS011;41329;41.594;23.810;2023-06-14T05:53:37;8.07;;;7.63;;
55465;SDS011;41329;41.594;23.810;2023-06-14T05:56:03;8.73;;;7.93;;
55465;SDS011;41329;41.594;23.810;2023-06-14T05:58:28;8.57;;;7.97;;
55465;SDS011;41329;41.594;23.810;2023-06-14T06:00:54;8.63;;;8.02;;
55465;SDS011;41329;41.594;23.810;2023-06-14T06:03:19;7.93;;;7.53;;
55465;SDS011;41329;41.594;23.810;2023-06-14T06:05:46;7.95;;;7.55;;
55465;SDS011;41329;41.594;23.810;2023-06-14T06:08:11;8.02;;;7.32;;
55465;SDS011;41329;41.594;23.810;2023-06-14T06:10:36;7.20;;;6.70;;
55465;SDS011;41329;41.594;23.810;2023-06-14T06:13:02;13.07;;;7.35;;
55465;SDS011;41329;41.594;23.810;2023-06-14T06:15:27;6.80;;;6.45;;
55465;SDS011;41329;41.594;23.810;2023-06-14T06:17:52;9.15;;;7.20;;
55465;SDS011;41329;41.594;23.810;2023-06-14T06:20:18;6.38;;;5.88;;
55465;SDS011;41329;41.594;23.810;2023-06-14T06:22:43;6.43;;;6.13;;
55465;SDS011;41329;41.594;23.810;2023-06-14T06:25:09;9.40;;;6.13;;
55465;SDS011;41329;41.594;23.810;2023-06-14T06:27:34;6.85;;;6.45;;
55465;SDS011;41329;41.594;23.810;2023-06-14T06:30:02;6.93;;;6.38;;
55465;SDS011;41329;41.594;23.810;2023-06-14T06:32:28;7.53;;;7.03;;
55465;SDS011;41329;41.594;23.810;2023-06-14T06:34:53;7.30;;;6.68;;
55465;SDS011;41329;41.594;23.810;2023-06-14T06:37:19;8.38;;;7.65;;
55465;SDS011;41329;41.594;23.810;2023-06-14T06:39:44;9.38;;;8.88;;
55465;SDS011;41329;41.594;23.810;2023-06-14T06:42:10;7.15;;;6.75;;
55465;SDS011;41329;41.594;23.810;2023-06-14T06:44:35;7.45;;;6.93;;
55465;SDS011;41329;41.594;23.810;2023-06-14T06:47:01;7.70;;;7.20;;
55465;SDS011;41329;41.594;23.810;2023-06-14T06:49:27;5.82;;;5.53;;
55465;SDS011;41329;41.594;23.810;2023-06-14T06:52:03;6.43;;;6.13;;
55465;SDS011;41329;41.594;23.810;2023-06-14T06:54:29;6.03;;;5.47;;
55465;SDS011;41329;41.594;23.810;2023-06-14T06:56:55;6.50;;;6.10;;
55465;SDS011;41329;41.594;23.810;2023-06-14T06:59:21;6.10;;;5.80;;
55465;SDS011;41329;41.594;23.810;2023-06-14T07:01:46;11.77;;;6.75;;
55465;SDS011;41329;41.594;23.810;2023-06-14T07:04:12;7.00;;;6.53;;
55465;SDS011;41329;41.594;23.810;2023-06-14T07:06:38;5.95;;;5.70;;
55465;SDS011;41329;41.594;23.810;2023-06-14T07:09:03;6.95;;;6.63;;
55465;SDS011;41329;41.594;23.810;2023-06-14T07:11:31;6.18;;;5.72;;
55465;SDS011;41329;41.594;23.810;2023-06-14T07:13:57;6.75;;;6.25;;
55465;SDS011;41329;41.594;23.810;2023-06-14T07:16:22;7.07;;;6.57;;
55465;SDS011;41329;41.594;23.810;2023-06-14T07:18:48;6.32;;;6.03;;
55465;SDS011;41329;41.594;23.810;2023-06-14T07:21:13;6.47;;;6.07;;
55465;SDS011;41329;41.594;23.810;2023-06-14T07:23:39;7.05;;;6.65;;
55465;SDS011;41329;41.594;23.810;2023-06-14T07:26:04;6.85;;;6.22;;
55465;SDS011;41329;41.594;23.810;2023-06-14T07:28:30;6.03;;;5.63;;
55465;SDS011;41329;41.594;23.810;2023-06-14T07:30:55;5.60;;;5.28;;
55465;SDS011;41329;41.594;23.810;2023-06-14T07:33:21;5.20;;;5.00;;
55465;SDS011;41329;41.594;23.810;2023-06-14T07:35:46;6.32;;;5.97;;
55465;SDS011;41329;41.594;23.810;2023-06-14T07:38:13;6.68;;;6.22;;
55465;SDS011;41329;41.594;23.810;2023-06-14T07:40:38;5.13;;;4.93;;
55465;SDS011;41329;41.594;23.810;2023-06-14T07:43:04;5.55;;;5.25;;
55465;SDS011;41329;41.594;23.810;2023-06-14T07:45:31;5.65;;;5.22;;
55465;SDS011;41329;41.594;23.810;2023-06-14T07:47:56;4.72;;;4.40;;
55465;SDS011;41329;41.594;23.810;2023-06-14T07:50:21;5.25;;;4.90;;
55465;SDS011;41329;41.594;23.810;2023-06-14T07:52:47;4.93;;;4.63;;
55465;SDS011;41329;41.594;23.810;2023-06-14T07:55:13;6.03;;;4.70;;
55465;SDS011;41329;41.594;23.810;2023-06-14T07:57:40;4.00;;;3.72;;
55465;SDS011;41329;41.594;23.810;2023-06-14T08:00:05;4.07;;;3.80;;
55465;SDS011;41329;41.594;23.810;2023-06-14T08:02:31;3.55;;;3.17;;
55465;SDS011;41329;41.594;23.810;2023-06-14T08:04:57;3.47;;;3.28;;
55465;SDS011;41329;41.594;23.810;2023-06-14T08:07:23;3.35;;;3.05;;
55465;SDS011;41329;41.594;23.810;2023-06-14T08:09:49;3.30;;;3.10;;
55465;SDS011;41329;41.594;23.810;2023-06-14T08:12:14;3.10;;;2.83;;
55465;SDS011;41329;41.594;23.810;2023-06-14T08:14:40;3.72;;;3.42;;
55465;SDS011;41329;41.594;23.810;2023-06-14T08:17:07;3.17;;;2.92;;
55465;SDS011;41329;41.594;23.810;2023-06-14T08:19:32;2.72;;;2.63;;
55465;SDS011;41329;41.594;23.810;2023-06-14T08:21:58;4.07;;;2.75;;
55465;SDS011;41329;41.594;23.810;2023-06-14T08:24:23;3.33;;;3.13;;
55465;SDS011;41329;41.594;23.810;2023-06-14T08:26:54;3.53;;;3.33;;
55465;SDS011;41329;41.594;23.810;2023-06-14T08:29:21;2.90;;;2.72;;
55465;SDS011;41329;41.594;23.810;2023-06-14T08:31:47;3.28;;;3.08;;
55465;SDS011;41329;41.594;23.810;2023-06-14T08:34:12;2.80;;;2.60;;
55465;SDS011;41329;41.594;23.810;2023-06-14T08:36:38;3.35;;;3.15;;
55465;SDS011;41329;41.594;23.810;2023-06-14T08:39:03;3.17;;;2.97;;
55465;SDS011;41329;41.594;23.810;2023-06-14T08:41:29;3.03;;;2.85;;
55465;SDS011;41329;41.594;23.810;2023-06-14T08:43:54;3.45;;;3.25;;
55465;SDS011;41329;41.594;23.810;2023-06-14T08:46:20;3.40;;;2.53;;
55465;SDS011;41329;41.594;23.810;2023-06-14T08:48:50;3.78;;;2.65;;
55465;SDS011;41329;41.594;23.810;2023-06-14T08:51:20;5.53;;;2.90;;
55465;SDS011;41329;41.594;23.810;2023-06-14T08:53:49;20.02;;;3.63;;
55465;SDS011;41329;41.594;23.810;2023-06-14T08:56:18;2.83;;;2.60;;
55465;SDS011;41329;41.594;23.810;2023-06-14T08:58:45;2.38;;;2.28;;
55465;SDS011;41329;41.594;23.810;2023-06-14T09:01:13;3.03;;;2.70;;
55465;SDS011;41329;41.594;23.810;2023-06-14T09:03:40;2.75;;;2.33;;
55465;SDS011;41329;41.594;23.810;2023-06-14T09:06:06;3.00;;;2.88;;
55465;SDS011;41329;41.594;23.810;2023-06-14T09:08:38;2.90;;;2.70;;
55465;SDS011;41329;41.594;23.810;2023-06-14T09:11:05;2.88;;;2.60;;
55465;SDS011;41329;41.594;23.810;2023-06-14T09:13:31;2.25;;;2.15;;
55465;SDS011;41329;41.594;23.810;2023-06-14T09:15:57;2.38;;;2.10;;
55465;SDS011;41329;41.594;23.810;2023-06-14T09:18:24;2.17;;;1.95;;
55465;SDS011;41329;41.594;23.810;2023-06-14T09:21:12;2.90;;;2.28;;
55465;SDS011;41329;41.594;23.810;2023-06-14T09:23:43;2.97;;;2.78;;
55465;SDS011;41329;41.594;23.810;2023-06-14T09:26:11;3.17;;;2.97;;
55465;SDS011;41329;41.594;23.810;2023-06-14T09:28:41;3.78;;;3.58;;
55465;SDS011;41329;41.594;23.810;2023-06-14T09:31:10;2.90;;;2.70;;
55465;SDS011;41329;41.594;23.810;2023-06-14T09:33:36;2.92;;;2.72;;
55465;SDS011;41329;41.594;23.810;2023-06-14T09:36:01;2.70;;;2.20;;
55465;SDS011;41329;41.594;23.810;2023-06-14T09:38:28;1.50;;;1.35;;
55465;SDS011;41329;41.594;23.810;2023-06-14T09:40:55;2.13;;;1.92;;
55465;SDS011;41329;41.594;23.810;2023-06-14T09:43:23;2.22;;;2.13;;
55465;SDS011;41329;41.594;23.810;2023-06-14T09:45:48;5.22;;;4.82;;
55465;SDS011;41329;41.594;23.810;2023-06-14T09:48:16;2.40;;;2.30;;
55465;SDS011;41329;41.594;23.810;2023-06-14T09:50:44;1.50;;;1.40;;
55465;SDS011;41329;41.594;23.810;2023-06-14T09:53:11;1.73;;;1.63;;
55465;SDS011;41329;41.594;23.810;2023-06-14T09:55:38;1.75;;;1.65;;
55465;SDS011;41329;41.594;23.810;2023-06-14T09:58:07;2.63;;;1.70;;
55465;SDS011;41329;41.594;23.810;2023-06-14T10:00:33;6.18;;;4.95;;
55465;SDS011;41329;41.594;23.810;2023-06-14T10:03:09;4.22;;;3.92;;
55465;SDS011;41329;41.594;23.810;2023-06-14T10:05:43;4.15;;;3.20;;
55465;SDS011;41329;41.594;23.810;2023-06-14T10:08:13;3.30;;;3.10;;
55465;SDS011;41329;41.594;23.810;2023-06-14T10:10:41;2.50;;;2.33;;
55465;SDS011;41329;41.594;23.810;2023-06-14T10:13:07;1.92;;;1.83;;
55465;SDS011;41329;41.594;23.810;2023-06-14T10:21:04;3.75;;;3.53;;
55465;SDS011;41329;41.594;23.810;2023-06-14T10:23:39;1.98;;;1.83;;
55465;SDS011;41329;41.594;23.810;2023-06-14T10:26:07;2.30;;;1.80;;
55465;SDS011;41329;41.594;23.810;2023-06-14T10:28:33;6.20;;;5.70;;
55465;SDS011;41329;41.594;23.810;2023-06-14T10:33:52;2.13;;;2.00;;
55465;SDS011;41329;41.594;23.810;2023-06-14T10:36:25;3.78;;;3.25;;
55465;SDS011;41329;41.594;23.810;2023-06-14T10:38:59;3.42;;;3.13;;
55465;SDS011;41329;41.594;23.810;2023-06-14T10:41:29;3.08;;;2.78;;
55465;SDS011;41329;41.594;23.810;2023-06-14T10:46:59;3.63;;;3.33;;
55465;SDS011;41329;41.594;23.810;2023-06-14T10:49:42;5.05;;;4.72;;
55465;SDS011;41329;41.594;23.810;2023-06-14T10:52:09;2.22;;;2.03;;
55465;SDS011;41329;41.594;23.810;2023-06-14T10:55:02;2.90;;;2.40;;
55465;SDS011;41329;41.594;23.810;2023-06-14T10:57:36;2.92;;;2.17;;
55465;SDS011;41329;41.594;23.810;2023-06-14T11:00:04;2.72;;;2.05;;
55465;SDS011;41329;41.594;23.810;2023-06-14T11:05:05;3.58;;;1.98;;
55465;SDS011;41329;41.594;23.810;2023-06-14T11:10:41;5.70;;;4.07;;
55465;SDS011;41329;41.594;23.810;2023-06-14T11:13:08;3.65;;;3.03;;
55465;SDS011;41329;41.594;23.810;2023-06-14T11:15:34;5.28;;;4.15;;
55465;SDS011;41329;41.594;23.810;2023-06-14T11:18:04;7.30;;;2.25;;
55465;SDS011;41329;41.594;23.810;2023-06-14T11:20:32;4.10;;;3.80;;
55465;SDS011;41329;41.594;23.810;2023-06-14T11:23:00;3.92;;;3.65;;
55465;SDS011;41329;41.594;23.810;2023-06-14T11:25:26;3.45;;;2.63;;
55465;SDS011;41329;41.594;23.810;2023-06-14T11:27:55;3.58;;;2.60;;
55465;SDS011;41329;41.594;23.810;2023-06-14T11:30:22;3.45;;;2.33;;
55465;SDS011;41329;41.594;23.810;2023-06-14T11:32:48;2.80;;;2.60;;
55465;SDS011;41329;41.594;23.810;2023-06-14T11:35:15;2.70;;;2.50;;
55465;SDS011;41329;41.594;23.810;2023-06-14T11:37:42;2.65;;;1.80;;
55465;SDS011;41329;41.594;23.810;2023-06-14T11:40:16;1.85;;;1.75;;
55465;SDS011;41329;41.594;23.810;2023-06-14T11:42:44;1.67;;;1.67;;
55465;SDS011;41329;41.594;23.810;2023-06-14T11:45:15;3.58;;;2.40;;
55465;SDS011;41329;41.594;23.810;2023-06-14T11:47:40;2.38;;;2.17;;
55465;SDS011;41329;41.594;23.810;2023-06-14T11:50:07;2.67;;;2.00;;
55465;SDS011;41329;41.594;23.810;2023-06-14T11:52:33;2.90;;;2.05;;
55465;SDS011;41329;41.594;23.810;2023-06-14T11:54:59;2.80;;;2.58;;
55465;SDS011;41329;41.594;23.810;2023-06-14T11:57:26;3.58;;;3.28;;
55465;SDS011;41329;41.594;23.810;2023-06-14T11:59:51;3.67;;;3.38;;
55465;SDS011;41329;41.594;23.810;2023-06-14T12:02:17;2.55;;;2.35;;
55465;SDS011;41329;41.594;23.810;2023-06-14T12:04:46;3.58;;;3.38;;
55465;SDS011;41329;41.594;23.810;2023-06-14T12:07:14;2.17;;;2.08;;
55465;SDS011;41329;41.594;23.810;2023-06-14T12:09:42;4.93;;;4.57;;
55465;SDS011;41329;41.594;23.810;2023-06-14T12:12:34;4.30;;;4.00;;
55465;SDS011;41329;41.594;23.810;2023-06-14T12:15:02;4.53;;;4.13;;
55465;SDS011;41329;41.594;23.810;2023-06-14T12:17:33;4.40;;;2.47;;
55465;SDS011;41329;41.594;23.810;2023-06-14T12:20:04;2.00;;;1.90;;
55465;SDS011;41329;41.594;23.810;2023-06-14T12:22:33;3.15;;;1.92;;
55465;SDS011;41329;41.594;23.810;2023-06-14T12:24:59;1.90;;;1.80;;
55465;SDS011;41329;41.594;23.810;2023-06-14T12:27:25;2.55;;;2.20;;
55465;SDS011;41329;41.594;23.810;2023-06-14T12:30:03;3.72;;;3.42;;
55465;SDS011;41329;41.594;23.810;2023-06-14T12:32:30;3.35;;;3.15;;
55465;SDS011;41329;41.594;23.810;2023-06-14T12:34:55;4.10;;;2.40;;
55465;SDS011;41329;41.594;23.810;2023-06-14T12:37:21;2.45;;;2.25;;
55465;SDS011;41329;41.594;23.810;2023-06-14T12:39:46;2.25;;;1.90;;
55465;SDS011;41329;41.594;23.810;2023-06-14T12:42:15;2.07;;;1.97;;
55465;SDS011;41329;41.594;23.810;2023-06-14T12:44:41;1.88;;;1.77;;
55465;SDS011;41329;41.594;23.810;2023-06-14T12:47:07;2.10;;;1.67;;
55465;SDS011;41329;41.594;23.810;2023-06-14T12:49:33;3.00;;;1.90;;
55465;SDS011;41329;41.594;23.810;2023-06-14T12:51:58;6.05;;;2.47;;
55465;SDS011;41329;41.594;23.810;2023-06-14T12:54:35;2.42;;;1.80;;
55465;SDS011;41329;41.594;23.810;2023-06-14T12:57:01;2.67;;;2.20;;
55465;SDS011;41329;41.594;23.810;2023-06-14T12:59:26;2.65;;;1.98;;
55465;SDS011;41329;41.594;23.810;2023-06-14T13:01:57;7.10;;;3.25;;
55465;SDS011;41329;41.594;23.810;2023-06-14T13:04:23;6.72;;;3.90;;
55465;SDS011;41329;41.594;23.810;2023-06-14T13:06:51;2.22;;;2.10;;
55465;SDS011;41329;41.594;23.810;2023-06-14T13:12:55;3.13;;;2.92;;
55465;SDS011;41329;41.594;23.810;2023-06-14T13:15:23;4.10;;;3.65;;
55465;SDS011;41329;41.594;23.810;2023-06-14T13:17:48;5.53;;;3.80;;
55465;SDS011;41329;41.594;23.810;2023-06-14T13:20:14;4.35;;;3.67;;
55465;SDS011;41329;41.594;23.810;2023-06-14T13:22:41;5.75;;;4.00;;
55465;SDS011;41329;41.594;23.810;2023-06-14T13:25:06;5.63;;;3.65;;
55465;SDS011;41329;41.594;23.810;2023-06-14T13:27:32;5.60;;;4.18;;
55465;SDS011;41329;41.594;23.810;2023-06-14T13:29:58;5.57;;;3.90;;
55465;SDS011;41329;41.594;23.810;2023-06-14T13:32:23;9.27;;;2.85;;
55465;SDS011;41329;41.594;23.810;2023-06-14T13:34:49;8.82;;;3.22;;
55465;SDS011;41329;41.594;23.810;2023-06-14T13:37:15;4.43;;;2.97;;
55465;SDS011;41329;41.594;23.810;2023-06-14T13:39:41;5.00;;;2.40;;
55465;SDS011;41329;41.594;23.810;2023-06-14T13:42:06;5.00;;;2.15;;
55465;SDS011;41329;41.594;23.810;2023-06-14T13:44:32;14.55;;;3.20;;
55465;SDS011;41329;41.594;23.810;2023-06-14T13:46:57;6.60;;;3.70;;
55465;SDS011;41329;41.594;23.810;2023-06-14T13:49:22;11.82;;;5.10;;
55465;SDS011;41329;41.594;23.810;2023-06-14T13:51:48;12.52;;;4.93;;
55465;SDS011;41329;41.594;23.810;2023-06-14T13:54:13;9.68;;;4.47;;
55465;SDS011;41329;41.594;23.810;2023-06-14T13:56:40;9.13;;;4.22;;
55465;SDS011;41329;41.594;23.810;2023-06-14T13:59:06;7.95;;;3.83;;
55465;SDS011;41329;41.594;23.810;2023-06-14T14:01:31;5.85;;;4.28;;
55465;SDS011;41329;41.594;23.810;2023-06-14T14:03:57;5.85;;;3.92;;
55465;SDS011;41329;41.594;23.810;2023-06-14T14:06:23;8.25;;;4.65;;
55465;SDS011;41329;41.594;23.810;2023-06-14T14:08:49;3.97;;;3.63;;
55465;SDS011;41329;41.594;23.810;2023-06-14T14:11:14;5.80;;;3.30;;
55465;SDS011;41329;41.594;23.810;2023-06-14T14:13:41;6.88;;;3.97;;
55465;SDS011;41329;41.594;23.810;2023-06-14T14:16:07;3.55;;;3.20;;
55465;SDS011;41329;41.594;23.810;2023-06-14T14:18:33;4.13;;;2.10;;
55465;SDS011;41329;41.594;23.810;2023-06-14T14:20:58;3.38;;;1.48;;
55465;SDS011;41329;41.594;23.810;2023-06-14T14:23:25;5.97;;;1.80;;
55465;SDS011;41329;41.594;23.810;2023-06-14T14:25:51;2.28;;;1.58;;
55465;SDS011;41329;41.594;23.810;2023-06-14T14:28:16;3.13;;;1.67;;
55465;SDS011;41329;41.594;23.810;2023-06-14T14:30:44;2.03;;;1.27;;
55465;SDS011;41329;41.594;23.810;2023-06-14T14:33:09;4.43;;;1.80;;
55465;SDS011;41329;41.594;23.810;2023-06-14T14:35:40;3.80;;;1.60;;
55465;SDS011;41329;41.594;23.810;2023-06-14T14:40:36;3.08;;;1.95;;
55465;SDS011;41329;41.594;23.810;2023-06-14T14:43:01;4.82;;;2.58;;
55465;SDS011;41329;41.594;23.810;2023-06-14T14:45:27;2.35;;;2.15;;
55465;SDS011;41329;41.594;23.810;2023-06-14T14:47:52;2.20;;;2.00;;
55465;SDS011;41329;41.594;23.810;2023-06-14T14:50:17;7.07;;;1.80;;
55465;SDS011;41329;41.594;23.810;2023-06-14T14:52:43;3.95;;;1.92;;
55465;SDS011;41329;41.594;23.810;2023-06-14T14:55:08;9.07;;;2.17;;
55465;SDS011;41329;41.594;23.810;2023-06-14T14:57:34;3.22;;;2.47;;